Time;durP1;ratioP1;P1;durP2;ratioP2;P2;SDS_P1;SDS_P2;PMS_P1;PMS_P2;Temp;Humidity;BMP_temperature;BMP_pressure;BME280_temperature;BME280_humidity;BME280_pressure;Samples;Min_cycle;Max_cycle;Signal;HPM_P1;HPM_P2
2023/05/20 00:00:04;;;;;;;5.88;4.70;;;;;;;12.44;89.00;96311.56;5072670;28;20052;-77
2023/05/20 00:02:31;;;;;;;7.22;4.60;;;;;;;12.41;88.57;96309.47;5073664;28;20044;-78
2023/05/20 00:04:57;;;;;;;6.50;5.00;;;;;;;12.38;88.16;96307.41;5074305;28;20080;-78
2023/05/20 00:07:24;;;;;;;5.88;4.97;;;;;;;12.34;88.23;96298.28;5073511;28;20670;-76
2023/05/20 00:09:50;;;;;;;6.75;4.88;;;;;;;12.32;87.94;96297.78;5074558;28;20548;-75
2023/05/20 00:12:17;;;;;;;8.13;5.00;;;;;;;12.26;87.92;96303.44;5074689;28;20063;-76
2023/05/20 00:14:45;;;;;;;9.05;5.70;;;;;;;12.23;88.15;96293.19;5075169;28;20051;-75
2023/05/20 00:17:11;;;;;;;6.70;5.22;;;;;;;12.20;88.14;96287.59;5085254;28;20051;-78
2023/05/20 00:19:38;;;;;;;9.73;5.60;;;;;;;12.18;88.51;96290.66;5075636;28;20044;-75
2023/05/20 00:22:04;;;;;;;6.70;4.60;;;;;;;12.16;88.63;96286.63;5086717;28;20044;-75
2023/05/20 00:24:31;;;;;;;8.15;5.00;;;;;;;12.12;88.89;96281.06;5079509;28;20041;-75
2023/05/20 00:26:57;;;;;;;6.10;4.78;;;;;;;12.12;89.45;96275.59;5073384;28;20051;-76
2023/05/20 00:29:24;;;;;;;7.75;5.05;;;;;;;12.10;89.97;96277.84;5071821;28;20043;-77
2023/05/20 00:31:52;;;;;;;9.00;5.80;;;;;;;12.11;90.47;96274.00;5073323;28;20508;-77
2023/05/20 00:34:19;;;;;;;10.13;5.72;;;;;;;12.05;90.76;96277.22;5091272;28;20445;-75
2023/05/20 00:36:46;;;;;;;8.48;5.75;;;;;;;12.06;90.95;96274.19;5092495;28;20043;-77
2023/05/20 00:39:12;;;;;;;9.55;5.75;;;;;;;12.06;91.20;96276.91;5092678;28;20051;-76
2023/05/20 00:41:39;;;;;;;7.63;5.80;;;;;;;12.05;90.96;96280.75;5077606;28;20049;-75
2023/05/20 00:44:06;;;;;;;9.38;5.88;;;;;;;12.04;90.85;96284.63;5070529;28;20056;-76
2023/05/20 00:46:32;;;;;;;8.60;5.38;;;;;;;12.02;90.94;96275.97;5078590;28;20044;-75
2023/05/20 00:49:00;;;;;;;13.80;6.85;;;;;;;12.00;90.58;96284.47;5081435;28;20040;-76
2023/05/20 00:51:27;;;;;;;8.07;5.95;;;;;;;11.98;90.63;96285.94;5071394;28;20044;-76
2023/05/20 00:53:54;;;;;;;12.55;6.00;;;;;;;11.96;90.36;96285.47;5071247;28;20388;-76
2023/05/20 00:56:21;;;;;;;10.98;6.28;;;;;;;11.93;90.40;96277.94;5073980;28;20501;-75
2023/05/20 00:58:48;;;;;;;11.88;6.55;;;;;;;11.90;90.50;96284.03;5071021;28;20518;-75
2023/05/20 01:01:14;;;;;;;11.50;6.22;;;;;;;11.86;90.60;96288.56;5070430;28;20067;-77
2023/05/20 01:03:41;;;;;;;21.38;7.30;;;;;;;11.84;91.22;96279.91;5070645;28;20051;-74
2023/05/20 01:06:09;;;;;;;15.93;7.28;;;;;;;11.82;91.10;96272.03;5070935;28;20044;-76
2023/05/20 01:08:35;;;;;;;11.02;6.85;;;;;;;11.77;91.53;96275.72;5070831;28;20094;-78
2023/05/20 01:11:06;;;;;;;40.60;7.85;;;;;;;11.74;92.10;96281.84;5071252;28;20044;-76
2023/05/20 01:13:36;;;;;;;28.33;6.88;;;;;;;11.72;92.06;96277.84;5071367;28;20048;-76
2023/05/20 01:16:04;;;;;;;33.35;7.32;;;;;;;11.71;92.16;96274.31;5070089;28;20088;-76
2023/05/20 01:18:33;;;;;;;21.55;6.57;;;;;;;11.69;92.11;96267.56;5070960;28;20075;-75
2023/05/20 01:21:02;;;;;;;34.40;7.82;;;;;;;11.65;92.31;96256.53;5070715;28;20078;-76
2023/05/20 01:23:34;;;;;;;41.22;8.35;;;;;;;11.62;92.33;96259.91;5070388;28;20047;-75
2023/05/20 01:26:01;;;;;;;31.13;7.45;;;;;;;11.61;92.37;96274.66;5068899;28;20047;-76
2023/05/20 01:28:29;;;;;;;36.35;7.35;;;;;;;11.62;92.87;96272.72;5071244;28;20460;-75
2023/05/20 01:30:57;;;;;;;29.85;7.00;;;;;;;11.61;93.03;96269.22;5075462;28;20506;-76
2023/05/20 01:33:25;;;;;;;36.72;7.18;;;;;;;11.60;93.56;96258.63;5070752;28;20040;-75
2023/05/20 01:35:52;;;;;;;42.20;8.50;;;;;;;11.56;94.15;96258.47;5070850;28;20047;-76
2023/05/20 01:38:20;;;;;;;26.17;7.65;;;;;;;11.55;94.25;96256.88;5070412;28;20420;-76
2023/05/20 01:40:49;;;;;;;36.42;8.10;;;;;;;11.57;94.52;96245.63;5067302;28;20044;-76
2023/05/20 01:43:17;;;;;;;33.10;8.10;;;;;;;11.57;94.29;96254.63;5062766;28;20040;-76
2023/05/20 01:45:44;;;;;;;30.35;8.00;;;;;;;11.57;94.22;96249.16;5069918;28;20135;-75
2023/05/20 01:48:11;;;;;;;27.23;7.70;;;;;;;11.56;94.16;96253.03;5070102;28;20036;-75
2023/05/20 01:50:38;;;;;;;33.03;8.73;;;;;;;11.53;93.78;96263.78;5070507;28;20500;-77
2023/05/20 01:53:04;;;;;;;31.20;8.20;;;;;;;11.51;94.01;96261.38;5070271;28;20047;-75
2023/05/20 01:55:31;;;;;;;32.80;8.43;;;;;;;11.45;94.24;96257.22;5070828;28;20044;-77
2023/05/20 01:57:59;;;;;;;30.48;9.00;;;;;;;11.46;94.24;96264.28;5069863;28;20040;-78
2023/05/20 02:00:25;;;;;;;15.50;7.32;;;;;;;11.45;94.16;96259.97;5069483;28;20041;-75
2023/05/20 02:02:52;;;;;;;18.05;8.30;;;;;;;11.43;94.46;96254.00;5070716;28;20054;-75
2023/05/20 02:05:18;;;;;;;21.88;8.35;;;;;;;11.42;94.21;96253.22;5069919;28;20117;-76
2023/05/20 02:07:45;;;;;;;26.73;8.60;;;;;;;11.40;94.34;96254.69;5070128;28;20040;-76
2023/05/20 02:10:11;;;;;;;14.52;7.80;;;;;;;11.38;94.31;96246.00;5069910;28;20036;-76
2023/05/20 02:12:38;;;;;;;19.60;8.35;;;;;;;11.38;94.32;96246.00;5069653;28;20049;-76
2023/05/20 02:15:07;;;;;;;19.63;8.25;;;;;;;11.35;94.42;96242.03;5069597;28;20543;-76
2023/05/20 02:17:33;;;;;;;20.05;8.30;;;;;;;11.32;94.34;96239.13;5084447;28;20039;-75
2023/05/20 02:20:00;;;;;;;10.00;7.20;;;;;;;11.29;94.39;96242.53;5079624;28;20055;-75
2023/05/20 02:22:26;;;;;;;9.60;7.32;;;;;;;11.24;94.40;96236.13;5074261;28;20040;-77
2023/05/20 02:24:53;;;;;;;11.10;7.50;;;;;;;11.20;94.25;96235.16;5079382;28;20066;-76
2023/05/20 02:27:19;;;;;;;15.75;7.53;;;;;;;11.17;94.29;96235.84;5069094;28;20038;-75
2023/05/20 02:29:46;;;;;;;11.20;7.70;;;;;;;11.16;94.43;96234.22;5070197;28;20044;-77
2023/05/20 02:32:13;;;;;;;10.07;7.65;;;;;;;11.13;94.95;96242.25;5069688;28;20041;-78
2023/05/20 02:34:40;;;;;;;10.38;7.70;;;;;;;11.07;95.46;96247.06;5069314;28;20041;-76
2023/05/20 02:37:06;;;;;;;11.75;8.43;;;;;;;11.08;95.69;96243.22;5069423;28;20044;-76
2023/05/20 02:39:33;;;;;;;10.95;7.82;;;;;;;11.09;95.52;96244.81;5071867;28;20045;-75
2023/05/20 02:41:59;;;;;;;10.55;7.82;;;;;;;11.09;95.62;96254.91;5069358;28;20048;-78
2023/05/20 02:44:26;;;;;;;11.63;8.32;;;;;;;11.10;95.90;96245.63;5068703;28;20044;-75
2023/05/20 02:46:52;;;;;;;10.63;8.35;;;;;;;11.09;96.11;96250.25;5068513;28;20476;-75
2023/05/20 02:49:20;;;;;;;12.75;9.10;;;;;;;11.07;96.02;96240.81;5080762;28;20668;-75
2023/05/20 02:51:46;;;;;;;10.25;7.88;;;;;;;11.07;96.43;96238.91;5076871;28;20530;-75
2023/05/20 02:54:13;;;;;;;11.55;8.90;;;;;;;11.07;96.73;96229.94;5068612;28;20055;-76
2023/05/20 02:56:39;;;;;;;22.40;8.85;;;;;;;11.06;96.27;96233.75;5069148;28;20518;-76
2023/05/20 02:59:06;;;;;;;25.77;9.80;;;;;;;11.05;96.20;96232.94;5072867;28;20059;-75
2023/05/20 03:01:34;;;;;;;12.13;8.25;;;;;;;11.03;96.56;96232.50;5072940;28;20126;-74
2023/05/20 03:04:00;;;;;;;31.40;10.77;;;;;;;11.03;96.63;96237.13;5073297;28;20060;-77
2023/05/20 03:06:29;;;;;;;19.05;10.00;;;;;;;10.98;96.43;96233.47;5073045;28;20403;-76
2023/05/20 03:08:56;;;;;;;13.55;8.57;;;;;;;10.95;96.73;96238.75;5073315;28;20071;-77
2023/05/20 03:11:23;;;;;;;13.50;9.27;;;;;;;10.97;97.06;96241.97;5072778;28;20053;-76
2023/05/20 03:13:50;;;;;;;11.65;8.05;;;;;;;11.00;97.19;96243.22;5073260;28;20672;-76
2023/05/20 03:16:17;;;;;;;15.35;9.27;;;;;;;11.01;97.23;96240.16;5075833;28;20044;-76
2023/05/20 03:18:43;;;;;;;25.35;9.82;;;;;;;11.02;97.06;96239.06;5072813;28;20403;-76
2023/05/20 03:21:10;;;;;;;23.60;9.75;;;;;;;11.03;97.23;96234.41;5072568;28;20060;-75
2023/05/20 03:23:37;;;;;;;29.08;10.60;;;;;;;11.02;96.88;96228.16;5072224;28;20036;-76
2023/05/20 03:26:05;;;;;;;22.75;10.00;;;;;;;11.03;97.08;96228.97;5072060;28;20048;-76
2023/05/20 03:28:32;;;;;;;19.38;9.00;;;;;;;11.02;96.79;96228.16;5072105;28;20040;-76
2023/05/20 03:30:58;;;;;;;23.00;11.05;;;;;;;10.97;97.21;96234.59;5073126;28;20045;-76
2023/05/20 03:33:26;;;;;;;28.65;11.63;;;;;;;10.94;97.35;96231.69;5072160;28;20045;-77
2023/05/20 03:35:52;;;;;;;17.98;9.18;;;;;;;10.97;97.83;96231.84;5072803;28;20052;-76
2023/05/20 03:38:18;;;;;;;27.85;10.32;;;;;;;11.02;97.88;96241.78;5080962;28;20060;-76
2023/05/20 03:40:46;;;;;;;21.45;10.15;;;;;;;11.05;98.08;96238.41;5071998;28;20060;-76
2023/05/20 03:43:13;;;;;;;23.00;10.35;;;;;;;11.06;97.74;96250.91;5072191;28;20045;-76
2023/05/20 03:45:39;;;;;;;26.02;10.55;;;;;;;11.08;98.04;96245.94;5073233;28;20040;-76
2023/05/20 03:48:06;;;;;;;24.27;9.50;;;;;;;11.11;98.08;96248.00;5089140;28;20051;-76
2023/05/20 03:50:35;;;;;;;26.35;10.15;;;;;;;11.15;98.33;96248.16;5073074;28;20033;-76
2023/05/20 03:53:02;;;;;;;24.23;10.77;;;;;;;11.13;98.48;96256.69;5072271;28;20044;-78
2023/05/20 03:55:28;;;;;;;26.65;10.15;;;;;;;11.12;98.45;96244.19;5077248;28;20126;-76
2023/05/20 03:57:56;;;;;;;22.48;10.52;;;;;;;11.12;98.30;96248.81;5092885;28;20126;-76
2023/05/20 04:00:23;;;;;;;20.42;9.88;;;;;;;11.13;98.64;96240.31;5069492;28;20051;-77
2023/05/20 04:02:49;;;;;;;15.85;10.35;;;;;;;11.17;98.91;96251.34;5072822;28;20424;-76
2023/05/20 04:05:16;;;;;;;13.30;10.00;;;;;;;11.16;98.96;96256.00;5071511;28;20048;-77
2023/05/20 04:07:42;;;;;;;13.50;9.60;;;;;;;11.19;98.80;96249.94;5072566;28;20048;-76
2023/05/20 04:10:10;;;;;;;12.90;9.55;;;;;;;11.20;98.79;96237.88;5069227;28;20053;-76
2023/05/20 04:12:37;;;;;;;14.60;9.82;;;;;;;11.23;98.68;96248.16;5072856;28;20083;-77
2023/05/20 04:15:06;;;;;;;12.18;8.77;;;;;;;11.21;98.42;96247.66;5072573;28;20058;-76
2023/05/20 04:17:32;;;;;;;12.48;8.70;;;;;;;11.21;98.28;96247.66;5073179;28;20048;-76
2023/05/20 04:19:59;;;;;;;13.63;9.40;;;;;;;11.18;98.03;96242.09;5072473;28;20127;-75
2023/05/20 04:22:25;;;;;;;14.52;9.32;;;;;;;11.15;98.29;96254.41;5071839;28;20120;-76
2023/05/20 04:24:52;;;;;;;13.18;9.52;;;;;;;11.12;98.08;96249.63;5072817;28;20063;-76
2023/05/20 04:27:19;;;;;;;12.93;9.93;;;;;;;11.13;98.13;96256.69;5071383;28;20120;-76
2023/05/20 04:29:46;;;;;;;13.02;9.15;;;;;;;11.15;98.15;96259.88;5072109;28;20132;-76
2023/05/20 04:32:17;;;;;;;14.38;9.07;;;;;;;11.19;98.24;96249.13;5071602;28;20127;-76
2023/05/20 04:34:43;;;;;;;13.75;9.57;;;;;;;11.20;98.22;96246.06;5072739;28;20046;-76
2023/05/20 04:37:10;;;;;;;12.07;9.80;;;;;;;11.23;98.46;96250.88;5071923;28;20155;-75
2023/05/20 04:39:37;;;;;;;14.10;9.55;;;;;;;11.26;99.02;96248.63;5077639;28;20051;-77
2023/05/20 04:42:05;;;;;;;14.73;9.70;;;;;;;11.30;98.93;96244.13;5073476;28;20052;-78
2023/05/20 04:44:31;;;;;;;13.63;9.50;;;;;;;11.33;98.97;96248.91;5078326;28;20104;-77
2023/05/20 04:46:58;;;;;;;13.02;9.52;;;;;;;11.37;98.90;96249.88;5074016;28;20404;-77
2023/05/20 04:49:27;;;;;;;12.63;9.15;;;;;;;11.41;98.83;96250.81;5074452;28;20396;-76
2023/05/20 04:51:55;;;;;;;15.93;10.15;;;;;;;11.47;99.48;96246.78;5091728;28;20038;-76
2023/05/20 04:54:21;;;;;;;14.68;9.75;;;;;;;11.50;99.69;96240.69;5077164;28;20140;-77
2023/05/20 04:56:48;;;;;;;13.50;10.43;;;;;;;11.51;99.43;96245.03;5070516;28;20041;-76
2023/05/20 04:59:14;;;;;;;16.90;10.35;;;;;;;11.52;99.43;96249.34;5071037;28;20056;-76
2023/05/20 05:01:41;;;;;;;21.15;10.07;;;;;;;11.56;99.56;96246.78;5071182;28;20037;-77
2023/05/20 05:04:07;;;;;;;35.55;12.48;;;;;;;11.56;99.49;96249.50;5069835;28;20048;-77
2023/05/20 05:06:35;;;;;;;12.63;9.68;;;;;;;11.60;99.42;96248.53;5070814;28;20047;-76
2023/05/20 05:09:01;;;;;;;12.85;9.80;;;;;;;11.68;99.03;96239.50;5070626;28;20056;-79
2023/05/20 05:11:28;;;;;;;13.13;10.32;;;;;;;11.69;99.18;96235.66;5071668;28;20045;-76
2023/05/20 05:13:55;;;;;;;17.70;11.32;;;;;;;11.71;99.42;96238.84;5070745;28;20036;-76
2023/05/20 05:16:22;;;;;;;15.40;10.35;;;;;;;11.77;99.26;96237.53;5070002;28;20068;-77
2023/05/20 05:18:48;;;;;;;16.55;11.15;;;;;;;11.77;99.65;96232.06;5070512;28;20431;-77
2023/05/20 05:21:15;;;;;;;17.63;10.32;;;;;;;11.71;99.02;96232.59;5069720;28;20040;-76
2023/05/20 05:23:43;;;;;;;15.23;9.82;;;;;;;11.84;98.88;96225.31;5070244;28;20048;-77
2023/05/20 05:26:10;;;;;;;13.70;9.60;;;;;;;11.97;98.60;96229.75;5074540;28;20577;-75
2023/05/20 05:28:37;;;;;;;13.93;10.20;;;;;;;12.01;98.29;96220.59;5071052;28;20048;-77
2023/05/20 05:31:04;;;;;;;21.65;13.30;;;;;;;11.91;97.66;96220.97;5070209;28;20056;-76
2023/05/20 05:33:30;;;;;;;14.07;10.40;;;;;;;12.00;97.34;96221.69;5083952;28;20047;-75
2023/05/20 05:35:57;;;;;;;13.18;9.48;;;;;;;12.07;97.57;96223.94;5071244;28;20048;-75
2023/05/20 05:38:24;;;;;;;11.55;9.10;;;;;;;12.22;96.85;96219.81;5070271;28;20063;-75
2023/05/20 05:40:52;;;;;;;15.32;9.95;;;;;;;12.09;95.81;96220.84;5071705;28;20377;-77
2023/05/20 05:43:19;;;;;;;12.02;9.32;;;;;;;11.82;95.69;96228.41;5071598;28;20040;-77
2023/05/20 05:45:46;;;;;;;14.45;9.38;;;;;;;11.99;95.61;96225.56;5071537;28;20045;-76
2023/05/20 05:48:12;;;;;;;15.80;10.77;;;;;;;11.92;96.59;96225.28;5070581;28;20156;-76
2023/05/20 05:50:39;;;;;;;15.35;10.82;;;;;;;11.92;95.96;96221.75;5075172;28;20044;-77
2023/05/20 05:53:05;;;;;;;13.80;10.20;;;;;;;12.08;95.58;96232.91;5071915;28;20056;-76
2023/05/20 05:55:32;;;;;;;15.65;11.48;;;;;;;12.01;95.16;96230.72;5073617;28;20044;-76
2023/05/20 05:57:59;;;;;;;15.23;11.63;;;;;;;12.10;94.89;96231.44;5073538;28;20086;-76
2023/05/20 06:00:26;;;;;;;13.27;10.40;;;;;;;11.95;96.51;96232.00;5078882;28;20095;-78
2023/05/20 06:02:52;;;;;;;13.35;9.45;;;;;;;12.15;96.04;96222.25;5078602;28;20041;-76
2023/05/20 06:05:19;;;;;;;15.18;9.95;;;;;;;12.19;95.60;96221.28;5074624;28;20051;-76
2023/05/20 06:07:45;;;;;;;15.32;10.38;;;;;;;12.22;95.41;96231.53;5060245;28;20044;-76
2023/05/20 06:10:12;;;;;;;17.38;9.63;;;;;;;12.38;95.01;96229.03;5063783;28;20403;-77
2023/05/20 06:12:38;;;;;;;18.02;10.40;;;;;;;12.42;95.23;96229.94;5072941;28;20051;-76
2023/05/20 06:15:08;;;;;;;13.85;9.65;;;;;;;12.40;93.24;96231.41;5071369;28;20053;-76
2023/05/20 06:17:34;;;;;;;14.77;9.65;;;;;;;12.50;93.56;96233.75;5083318;28;20662;-76
2023/05/20 06:20:00;;;;;;;16.23;9.93;;;;;;;12.60;92.84;96236.09;5076561;28;20051;-77
2023/05/20 06:22:27;;;;;;;14.95;9.48;;;;;;;12.49;92.46;96234.88;5075629;28;20032;-77
2023/05/20 06:24:59;;;;;;;12.93;9.48;;;;;;;12.51;92.06;96230.69;5075361;28;20044;-78
2023/05/20 06:27:25;;;;;;;16.20;9.15;;;;;;;12.68;91.77;96237.94;5074199;28;20050;-76
2023/05/20 06:29:52;;;;;;;15.13;11.18;;;;;;;12.70;91.15;96224.75;5076737;28;20518;-76
2023/05/20 06:32:19;;;;;;;15.73;9.57;;;;;;;12.80;90.06;96218.06;5074811;28;20055;-76
2023/05/20 06:34:46;;;;;;;17.75;9.65;;;;;;;12.84;89.12;96218.19;5077945;28;20033;-76
2023/05/20 06:37:12;;;;;;;15.48;10.23;;;;;;;12.94;89.17;96212.31;5075771;28;20048;-76
2023/05/20 06:39:39;;;;;;;13.85;8.75;;;;;;;12.91;88.04;96223.94;5075966;28;20043;-76
2023/05/20 06:42:06;;;;;;;12.15;8.40;;;;;;;13.04;88.22;96217.34;5072936;28;20074;-76
2023/05/20 06:44:32;;;;;;;13.25;9.18;;;;;;;13.13;88.03;96215.34;5071359;28;20052;-76
2023/05/20 06:46:58;;;;;;;13.60;9.40;;;;;;;13.23;87.84;96212.22;5075874;28;20044;-77
2023/05/20 06:49:27;;;;;;;14.20;8.68;;;;;;;13.29;86.06;96221.00;5072605;28;20043;-76
2023/05/20 06:51:53;;;;;;;12.07;9.15;;;;;;;13.27;87.03;96215.88;5070723;28;20043;-76
2023/05/20 06:54:20;;;;;;;10.80;8.88;;;;;;;13.44;87.14;96220.34;5069767;28;20044;-76
2023/05/20 06:56:47;;;;;;;14.77;10.25;;;;;;;13.44;86.98;96227.75;5071323;28;20055;-76
2023/05/20 06:59:13;;;;;;;13.85;9.38;;;;;;;13.59;86.14;96210.69;5070429;28;20423;-76
2023/05/20 07:01:40;;;;;;;15.00;9.70;;;;;;;13.71;85.44;96207.94;5070227;28;20730;-76
2023/05/20 07:04:06;;;;;;;13.27;9.00;;;;;;;13.65;84.81;96206.56;5069939;28;20067;-76
2023/05/20 07:06:34;;;;;;;11.43;8.82;;;;;;;13.63;84.63;96195.19;5065912;28;20381;-76
2023/05/20 07:09:01;;;;;;;13.82;8.70;;;;;;;13.47;83.91;96208.72;5070781;28;20051;-77
2023/05/20 07:11:27;;;;;;;11.13;8.55;;;;;;;13.70;84.33;96205.56;5081455;28;20051;-77
2023/05/20 07:13:53;;;;;;;12.43;9.15;;;;;;;13.69;84.06;96207.50;5091739;28;20495;-76
2023/05/20 07:16:20;;;;;;;13.50;9.52;;;;;;;13.76;83.77;96204.97;5077619;28;20478;-77
2023/05/20 07:18:46;;;;;;;12.23;8.82;;;;;;;13.70;83.98;96203.59;5090456;28;21401;-76
2023/05/20 07:21:13;;;;;;;12.45;8.70;;;;;;;13.86;84.14;96214.66;5071663;28;20057;-77
2023/05/20 07:23:41;;;;;;;12.93;10.60;;;;;;;13.99;83.46;96202.59;5078835;28;20067;-77
2023/05/20 07:26:07;;;;;;;11.98;8.57;;;;;;;14.03;82.65;96189.00;5069834;28;20045;-77
2023/05/20 07:28:35;;;;;;;10.25;8.05;;;;;;;14.29;83.13;96191.34;5062688;28;20519;-77
2023/05/20 07:31:02;;;;;;;10.45;8.30;;;;;;;14.47;81.78;96180.94;5069206;28;20144;-77
2023/05/20 07:33:29;;;;;;;10.50;8.15;;;;;;;14.62;80.28;96188.47;5069450;28;20052;-77
2023/05/20 07:35:55;;;;;;;11.63;8.20;;;;;;;14.68;78.54;96192.53;5071626;28;20060;-77
2023/05/20 07:38:22;;;;;;;9.50;7.55;;;;;;;14.95;79.32;96187.41;5071737;28;20048;-77
2023/05/20 07:40:50;;;;;;;15.93;10.25;;;;;;;15.01;78.21;96191.47;5078142;28;20048;-77
2023/05/20 07:43:16;;;;;;;15.20;8.48;;;;;;;15.12;77.13;96187.06;5070784;28;20049;-78
2023/05/20 07:45:43;;;;;;;11.38;7.35;;;;;;;15.24;77.49;96178.75;5073648;28;20048;-77
2023/05/20 07:48:11;;;;;;;10.50;7.53;;;;;;;15.28;77.08;96179.66;5090685;28;20546;-77
2023/05/20 07:50:38;;;;;;;9.27;7.70;;;;;;;15.43;76.11;96185.53;5081511;28;20055;-76
2023/05/20 07:53:05;;;;;;;9.48;7.70;;;;;;;15.66;76.07;96186.53;5073626;28;20051;-78
2023/05/20 07:55:33;;;;;;;10.52;7.53;;;;;;;15.69;72.94;96188.56;5074429;28;20044;-77
2023/05/20 07:58:01;;;;;;;11.98;7.28;;;;;;;15.96;74.19;96186.06;5073148;28;20048;-77
2023/05/20 08:00:28;;;;;;;11.68;7.20;;;;;;;16.21;70.90;96176.44;5073434;28;20040;-77
2023/05/20 08:02:54;;;;;;;9.88;7.03;;;;;;;16.74;68.89;96182.31;5074134;28;20415;-77
2023/05/20 08:05:21;;;;;;;10.07;6.53;;;;;;;17.36;67.16;96177.59;5091623;28;20040;-77
2023/05/20 08:07:48;;;;;;;8.82;6.90;;;;;;;17.24;66.51;96172.28;5084069;28;20040;-77
2023/05/20 08:10:14;;;;;;;8.98;7.28;;;;;;;17.39;65.04;96174.13;5072936;28;20523;-77
2023/05/20 08:12:41;;;;;;;8.68;6.82;;;;;;;17.65;64.29;96180.88;5086558;28;20067;-77
2023/05/20 08:15:09;;;;;;;8.05;5.88;;;;;;;17.74;64.54;96171.19;5080932;28;20051;-78
2023/05/20 08:17:37;;;;;;;21.40;6.78;;;;;;;17.79;64.73;96178.34;5072441;28;20052;-78
2023/05/20 08:20:05;;;;;;;38.60;8.32;;;;;;;17.85;65.03;96176.88;5072345;28;20132;-77
2023/05/20 08:22:33;;;;;;;31.73;8.02;;;;;;;18.05;63.92;96171.28;5072433;28;20044;-77
2023/05/20 08:25:00;;;;;;;36.22;7.40;;;;;;;18.39;64.11;96166.66;5072187;28;20044;-78
2023/05/20 08:27:26;;;;;;;23.88;7.13;;;;;;;18.60;62.34;96168.91;5072986;28;20052;-77
2023/05/20 08:29:52;;;;;;;34.17;7.68;;;;;;;18.78;60.72;96176.25;5078803;28;20036;-77
2023/05/20 08:32:20;;;;;;;8.35;6.00;;;;;;;18.89;61.53;96165.34;5072829;28;20055;-78
2023/05/20 08:34:48;;;;;;;7.30;5.85;;;;;;;18.93;61.47;96166.19;5081495;28;20059;-78
2023/05/20 08:37:14;;;;;;;9.15;6.57;;;;;;;19.01;61.35;96156.84;5072608;28;20049;-77
2023/05/20 08:39:41;;;;;;;8.45;6.50;;;;;;;18.79;60.00;96160.50;5073773;28;20487;-77
2023/05/20 08:42:10;;;;;;;11.80;6.70;;;;;;;18.93;61.94;96160.66;5072945;28;20049;-77
2023/05/20 08:44:37;;;;;;;13.20;6.60;;;;;;;19.13;60.75;96169.56;5074269;28;20040;-77
2023/05/20 08:47:06;;;;;;;10.80;5.68;;;;;;;19.33;60.11;96161.09;5080745;28;20048;-77
2023/05/20 08:49:33;;;;;;;8.73;6.18;;;;;;;19.34;60.51;96157.16;5074602;28;20052;-77
2023/05/20 08:52:01;;;;;;;7.90;5.53;;;;;;;19.21;59.71;96159.38;5074161;28;20048;-77
2023/05/20 08:54:38;;;;;;;7.03;5.68;;;;;;;19.18;59.64;96155.44;5072745;28;20045;-77
2023/05/20 08:57:05;;;;;;;8.98;5.60;;;;;;;19.16;59.49;96156.97;5081429;28;20055;-78
2023/05/20 08:59:32;;;;;;;21.95;7.43;;;;;;;19.11;60.31;96158.13;5088331;28;20051;-77
2023/05/20 09:01:59;;;;;;;22.23;6.78;;;;;;;19.11;60.05;96154.56;5073438;28;20066;-77
2023/05/20 09:04:25;;;;;;;19.75;6.68;;;;;;;19.00;60.29;96160.78;5071985;28;20097;-78
2023/05/20 09:06:54;;;;;;;25.08;6.88;;;;;;;18.73;59.64;96159.25;5071083;28;20097;-77
2023/05/20 09:09:21;;;;;;;9.20;5.70;;;;;;;18.74;59.70;96147.03;5070622;28;20430;-78
2023/05/20 09:11:47;;;;;;;6.40;5.18;;;;;;;18.86;60.24;96155.09;5070987;28;20049;-78
2023/05/20 09:14:14;;;;;;;7.40;6.10;;;;;;;18.77;59.36;96152.59;5070604;28;20389;-78
2023/05/20 09:16:40;;;;;;;33.28;7.22;;;;;;;18.70;60.06;96157.25;5068452;28;20162;-77
2023/05/20 09:19:08;;;;;;;9.80;6.07;;;;;;;18.58;60.45;96147.22;5077773;28;20521;-77
2023/05/20 09:21:36;;;;;;;10.50;6.15;;;;;;;18.39;60.06;96147.38;5070768;28;20139;-77
2023/05/20 09:24:04;;;;;;;10.65;6.18;;;;;;;18.47;61.82;96138.78;5070329;28;20036;-79
2023/05/20 09:26:31;;;;;;;11.93;6.78;;;;;;;18.63;63.62;96146.09;5089813;28;20452;-78
2023/05/20 09:28:58;;;;;;;23.60;7.25;;;;;;;18.69;62.40;96144.63;5076090;28;20548;-77
2023/05/20 09:31:29;;;;;;;10.00;6.25;;;;;;;18.71;62.10;96145.03;5070082;28;20049;-77
2023/05/20 09:33:56;;;;;;;9.38;6.75;;;;;;;18.65;61.65;96149.28;5070357;28;20561;-77
2023/05/20 09:36:23;;;;;;;11.55;6.40;;;;;;;18.60;60.64;96157.88;5070318;28;20041;-78
2023/05/20 09:38:52;;;;;;;23.92;7.00;;;;;;;18.81;61.60;96158.16;5075962;28;20435;-77
2023/05/20 09:41:24;;;;;;;10.18;6.03;;;;;;;19.02;61.25;96155.66;5090457;28;20500;-77
2023/05/20 09:43:53;;;;;;;50.08;8.50;;;;;;;19.12;60.92;96151.44;5082604;28;20052;-77
2023/05/20 09:46:20;;;;;;;8.20;6.13;;;;;;;19.27;61.82;96146.84;5070130;28;20048;-77
2023/05/20 09:48:48;;;;;;;44.35;8.13;;;;;;;19.45;60.96;96147.00;5082009;28;20123;-77
2023/05/20 09:51:15;;;;;;;28.80;7.30;;;;;;;19.76;61.42;96145.72;5070031;28;20044;-78
2023/05/20 09:53:42;;;;;;;8.68;7.00;;;;;;;20.10;58.92;96146.38;5070380;28;20044;-77
2023/05/20 09:56:09;;;;;;;34.90;8.52;;;;;;;20.28;57.46;96139.00;5069691;28;20074;-78
2023/05/20 09:58:38;;;;;;;9.13;6.40;;;;;;;20.44;58.71;96130.38;5070710;28;20036;-78
2023/05/20 10:01:06;;;;;;;17.13;6.88;;;;;;;20.57;57.24;96128.91;5070457;28;20056;-77
2023/05/20 10:03:34;;;;;;;8.35;5.93;;;;;;;20.63;56.01;96121.03;5070700;28;20067;-77
2023/05/20 10:06:33;;;;;;;7.38;5.30;;;;;;;20.81;55.89;96121.09;5069583;28;20037;-77
2023/05/20 10:09:15;;;;;;;8.80;5.65;;;;;;;20.92;56.40;96113.59;5069147;28;20037;-76
2023/05/20 10:11:48;;;;;;;7.15;5.25;;;;;;;20.97;56.63;96120.72;5070309;28;20399;-78
2023/05/20 10:14:25;;;;;;;;;;;;;;;21.03;56.77;96111.66;5071688;28;20500;-77
2023/05/20 10:16:57;;;;;;;8.90;5.88;;;;;;;20.79;57.28;96112.38;5076104;28;19927;-77
2023/05/20 10:19:29;;;;;;;8.80;6.27;;;;;;;20.74;59.77;96107.22;5080803;28;20042;-77
2023/05/20 10:21:57;;;;;;;8.25;5.72;;;;;;;20.78;56.18;96116.34;5070956;28;20548;-76
2023/05/20 10:24:31;;;;;;;11.75;6.15;;;;;;;20.82;55.70;96114.34;5068647;28;20264;-77
2023/05/20 10:26:57;;;;;;;;;;;;;;;20.72;56.32;96113.13;5070866;28;20041;-77
2023/05/20 10:29:26;;;;;;;7.22;5.88;;;;;;;20.53;56.27;96119.78;5069943;28;19920;-77
2023/05/20 10:31:53;;;;;;;6.97;5.55;;;;;;;20.28;57.99;96114.09;5070127;28;20036;-77
2023/05/20 10:34:21;;;;;;;8.30;5.93;;;;;;;19.90;57.05;96118.22;5077820;28;20044;-77
2023/05/20 10:36:58;;;;;;;8.75;6.03;;;;;;;19.97;57.58;96120.22;5089503;28;20040;-77
2023/05/20 10:39:27;;;;;;;9.93;6.50;;;;;;;19.93;60.25;96127.69;5069352;28;20063;-78
2023/05/20 10:41:53;;;;;;;7.70;5.93;;;;;;;19.89;59.04;96108.34;5069387;28;20072;-77
2023/05/20 10:44:20;;;;;;;10.82;5.82;;;;;;;19.86;59.53;96114.63;5077196;28;20051;-77
2023/05/20 10:47:01;;;;;;;8.65;6.32;;;;;;;19.88;59.83;96109.50;5070269;28;20094;-77
2023/05/20 10:49:34;;;;;;;8.13;6.53;;;;;;;20.06;58.18;96093.84;5069121;28;20048;-78
2023/05/20 10:52:01;;;;;;;7.20;4.93;;;;;;;20.39;58.46;96094.00;5069695;28;20064;-78
2023/05/20 10:54:28;;;;;;;9.90;5.68;;;;;;;20.56;58.95;96102.41;5069322;28;20127;-78
2023/05/20 10:56:56;;;;;;;7.43;5.22;;;;;;;20.61;56.23;96097.69;5069920;28;20047;-78
2023/05/20 10:59:22;;;;;;;7.43;5.13;;;;;;;20.79;57.14;96104.09;5068574;28;20057;-77
2023/05/20 11:01:50;;;;;;;6.53;5.15;;;;;;;20.83;57.53;96108.44;5073547;28;20040;-77
2023/05/20 11:04:18;;;;;;;6.57;4.95;;;;;;;20.97;56.36;96106.91;5084322;28;20090;-77
2023/05/20 11:06:51;;;;;;;8.70;5.20;;;;;;;20.85;55.79;96103.31;5069340;28;20045;-77
2023/05/20 11:09:17;;;;;;;8.13;5.60;;;;;;;20.72;55.82;96104.03;5068320;28;20389;-78
2023/05/20 11:11:44;;;;;;;8.43;5.47;;;;;;;20.82;55.45;96100.53;5069300;28;20135;-77
2023/05/20 11:14:13;;;;;;;8.32;5.93;;;;;;;20.82;54.96;96094.97;5068470;28;20049;-76
2023/05/20 11:16:40;;;;;;;8.25;6.57;;;;;;;20.93;55.93;96090.28;5079353;28;20044;-78
2023/05/20 11:19:09;;;;;;;11.82;6.90;;;;;;;21.15;56.11;96087.56;5089519;28;20051;-78
2023/05/20 11:21:43;;;;;;;9.27;6.43;;;;;;;21.23;56.30;96080.84;5072711;28;20447;-76
2023/05/20 11:24:09;;;;;;;7.70;6.40;;;;;;;21.26;54.55;96080.84;5072920;28;20515;-77
2023/05/20 11:26:37;;;;;;;8.27;6.25;;;;;;;21.36;58.80;96079.31;5072369;28;20573;-77